createdAt,value
2019-04-26T00:02:14.079Z,15.51
2019-04-26T00:04:42.555Z,15.48
2019-04-26T00:07:11.226Z,15.42
2019-04-26T00:09:40.975Z,15.41
2019-04-26T00:12:25.971Z,15.37
2019-04-26T00:15:14.337Z,15.33
2019-04-26T00:17:47.396Z,15.25
2019-04-26T00:20:17.011Z,15.16
2019-04-26T00:22:45.653Z,15.16
2019-04-26T00:25:14.435Z,15.16
2019-04-26T00:27:42.932Z,15.16
2019-04-26T00:30:13.129Z,15.11
2019-04-26T00:32:41.619Z,15.12
2019-04-26T00:35:10.165Z,15.14
2019-04-26T00:37:38.594Z,15.12
2019-04-26T00:40:07.137Z,15.10
2019-04-26T00:42:35.565Z,15.07
2019-04-26T00:45:04.407Z,14.99
2019-04-26T00:47:32.832Z,14.98
2019-04-26T00:50:01.704Z,15.03
2019-04-26T00:52:30.262Z,15.01
2019-04-26T00:54:59.453Z,14.93
2019-04-26T00:57:28.325Z,14.98
2019-04-26T00:59:57.220Z,14.88
2019-04-26T01:02:29.875Z,14.80
2019-04-26T01:04:58.330Z,14.73
2019-04-26T01:07:26.737Z,14.61
2019-04-26T01:09:55.164Z,14.69
2019-04-26T01:12:23.949Z,14.61
2019-04-26T01:14:52.584Z,14.58
2019-04-26T01:17:20.986Z,14.51
2019-04-26T01:19:49.494Z,14.60
2019-04-26T01:22:21.262Z,14.61
2019-04-26T01:24:50.663Z,14.60
2019-04-26T01:27:21.375Z,14.51
2019-04-26T01:29:51.435Z,14.49
2019-04-26T01:32:20.618Z,14.56
2019-04-26T01:34:50.597Z,14.54
2019-04-26T01:37:19.657Z,14.49
2019-04-26T01:39:53.246Z,14.48
2019-04-26T01:42:24.266Z,14.45
2019-04-26T01:44:58.933Z,14.49
2019-04-26T01:47:28.408Z,14.54
2019-04-26T01:49:57.198Z,14.50
2019-04-26T01:52:25.735Z,14.40
2019-04-26T01:54:54.201Z,14.34
2019-04-26T01:57:25.189Z,14.29
2019-04-26T01:59:57.006Z,14.27
2019-04-26T02:02:27.775Z,14.23
2019-04-26T02:04:58.390Z,14.21
2019-04-26T02:07:39.532Z,14.16
2019-04-26T02:10:13.006Z,14.15
2019-04-26T02:12:44.133Z,14.11
2019-04-26T02:15:13.110Z,14.07
2019-04-26T02:17:41.887Z,13.99
2019-04-26T02:20:10.967Z,13.90
2019-04-26T02:22:44.474Z,13.86
2019-04-26T02:25:12.981Z,13.83
2019-04-26T02:27:41.468Z,13.80
2019-04-26T02:30:10.246Z,13.81
2019-04-26T02:32:39.337Z,13.81
2019-04-26T02:35:08.309Z,13.81
2019-04-26T02:37:38.324Z,13.86
2019-04-26T02:40:09.949Z,13.87
2019-04-26T02:42:40.270Z,13.90
2019-04-26T02:45:22.539Z,13.88
2019-04-26T02:48:11.012Z,13.94
2019-04-26T02:50:41.939Z,13.99
2019-04-26T02:53:19.314Z,13.96
2019-04-26T02:55:59.881Z,13.90
2019-04-26T02:58:33.272Z,13.85
2019-04-26T03:01:02.340Z,13.79
2019-04-26T03:03:32.225Z,13.74
2019-04-26T03:06:01.691Z,13.69
2019-04-26T03:08:32.086Z,13.72
2019-04-26T03:11:04.297Z,13.73
2019-04-26T03:13:44.583Z,13.70
2019-04-26T03:16:20.076Z,13.73
2019-04-26T03:18:55.916Z,13.67
2019-04-26T03:21:32.033Z,13.60
2019-04-26T03:24:12.574Z,13.53
2019-04-26T03:26:44.184Z,13.47
2019-04-26T03:29:28.000Z,13.38
2019-04-26T03:32:36.207Z,13.30
2019-04-26T03:35:27.251Z,13.26
2019-04-26T03:38:18.393Z,13.23
2019-04-26T03:41:10.991Z,13.19
2019-04-26T03:43:58.824Z,13.12
2019-04-26T03:46:39.819Z,13.11
2019-04-26T03:49:17.813Z,13.07
2019-04-26T03:52:05.831Z,13.02
2019-04-26T03:54:37.264Z,12.97
2019-04-26T03:57:16.625Z,13.09
2019-04-26T03:59:55.404Z,13.14
2019-04-26T04:02:41.508Z,13.21
2019-04-26T04:05:18.278Z,13.27
2019-04-26T04:07:51.413Z,13.37
2019-04-26T04:10:21.775Z,13.44
2019-04-26T04:12:53.381Z,13.43
2019-04-26T04:15:44.687Z,13.43
2019-04-26T04:18:18.279Z,13.42
2019-04-26T04:21:12.517Z,13.38
2019-04-26T04:23:50.153Z,13.30
2019-04-26T04:26:21.374Z,13.23
2019-04-26T04:29:39.366Z,13.06
2019-04-26T04:31:59.809Z,12.94
2019-04-26T04:34:43.994Z,12.87
2019-04-26T04:37:16.151Z,12.83
2019-04-26T04:39:56.629Z,12.76
2019-04-26T04:42:48.759Z,12.81
2019-04-26T04:45:43.903Z,12.86
2019-04-26T04:48:26.106Z,12.90
2019-04-26T04:51:18.513Z,12.89
2019-04-26T04:53:59.067Z,12.90
2019-04-26T04:56:36.982Z,12.92
2019-04-26T04:59:13.808Z,12.99
2019-04-26T05:02:07.865Z,13.04
2019-04-26T05:04:45.207Z,13.06
2019-04-26T05:07:33.436Z,13.22
2019-04-26T05:10:08.153Z,13.39
2019-04-26T05:12:57.588Z,13.57
2019-04-26T05:15:53.486Z,13.71
2019-04-26T05:18:27.720Z,13.79
2019-04-26T05:21:08.557Z,13.78
2019-04-26T05:23:47.121Z,13.78
2019-04-26T05:26:58.349Z,13.89
2019-04-26T05:29:40.242Z,14.03
2019-04-26T05:32:17.832Z,14.19
2019-04-26T05:34:57.028Z,14.29
2019-04-26T05:37:49.227Z,14.37
2019-04-26T05:40:29.821Z,14.44
2019-04-26T05:43:18.143Z,14.52
2019-04-26T05:46:12.078Z,14.59
2019-04-26T05:49:07.604Z,14.67
2019-04-26T05:52:06.524Z,14.81
2019-04-26T05:54:52.237Z,15.43
2019-04-26T05:57:41.857Z,15.82
2019-04-26T06:00:36.259Z,16.03
2019-04-26T06:03:31.423Z,16.06
2019-04-26T06:06:22.519Z,16.08
2019-04-26T06:09:04.411Z,16.74
2019-04-26T06:11:50.261Z,17.60
2019-04-26T06:14:41.799Z,18.12
2019-04-26T06:17:20.190Z,18.38
2019-04-26T06:20:22.787Z,18.22
2019-04-26T06:22:53.716Z,17.91
2019-04-26T06:25:28.408Z,17.43
2019-04-26T06:28:02.763Z,17.24
2019-04-26T06:30:44.968Z,17.40
2019-04-26T06:33:10.573Z,17.79
2019-04-26T06:35:41.115Z,18.23
2019-04-26T06:38:20.178Z,18.65
2019-04-26T06:41:21.400Z,18.79
2019-04-26T06:44:00.396Z,19.06
2019-04-26T06:46:55.128Z,18.98
2019-04-26T06:49:38.130Z,18.72
2019-04-26T06:52:12.915Z,18.40
2019-04-26T06:55:16.297Z,18.28
2019-04-26T06:58:04.932Z,18.20
2019-04-26T07:01:01.960Z,18.30
2019-04-26T07:03:59.693Z,18.35
2019-04-26T07:07:02.874Z,18.40
2019-04-26T07:09:37.510Z,18.42
2019-04-26T07:12:28.997Z,18.29
2019-04-26T07:15:12.379Z,18.18
2019-04-26T07:18:17.465Z,18.12
2019-04-26T07:21:05.535Z,18.27
2019-04-26T07:24:01.197Z,18.43
2019-04-26T07:26:54.664Z,18.76
2019-04-26T07:29:41.260Z,19.42
2019-04-26T07:32:12.937Z,19.79
2019-04-26T07:34:55.621Z,19.80
2019-04-26T07:38:01.293Z,19.72
2019-04-26T07:40:54.271Z,19.78
2019-04-26T07:43:56.251Z,20.02
2019-04-26T07:46:43.271Z,20.46
2019-04-26T07:49:23.524Z,20.83
2019-04-26T07:52:04.340Z,21.11
2019-04-26T07:55:09.265Z,21.22
2019-04-26T07:57:55.948Z,21.22
2019-04-26T08:00:29.174Z,21.14
2019-04-26T08:03:15.019Z,21.24
2019-04-26T08:05:53.389Z,21.42
2019-04-26T08:08:24.993Z,21.38
2019-04-26T08:11:04.405Z,21.33
2019-04-26T08:13:34.750Z,21.30
2019-04-26T08:16:08.513Z,21.39
2019-04-26T08:18:41.933Z,21.55
2019-04-26T08:21:17.379Z,21.71
2019-04-26T08:23:52.494Z,21.83
2019-04-26T08:26:22.781Z,21.83
2019-04-26T08:28:51.980Z,21.61
2019-04-26T08:31:24.416Z,21.46
2019-04-26T08:33:54.398Z,21.35
2019-04-26T08:36:27.143Z,21.36
2019-04-26T08:38:55.007Z,21.32
2019-04-26T08:41:23.779Z,21.38
2019-04-26T08:44:11.142Z,21.45
2019-04-26T08:46:43.133Z,21.39
2019-04-26T08:49:17.599Z,21.26
2019-04-26T08:51:46.614Z,21.33
2019-04-26T08:54:20.870Z,21.52
2019-04-26T08:56:52.450Z,21.70
2019-04-26T08:59:25.839Z,21.74
2019-04-26T09:01:57.158Z,21.90
2019-04-26T09:04:28.116Z,22.04
2019-04-26T09:07:01.190Z,22.05
2019-04-26T09:09:32.437Z,21.94
2019-04-26T09:12:08.187Z,21.88
2019-04-26T09:14:35.853Z,21.89
2019-04-26T09:17:04.814Z,21.88
2019-04-26T09:19:33.221Z,21.80
2019-04-26T09:22:13.537Z,21.88
2019-04-26T09:24:46.330Z,21.84
2019-04-26T09:27:17.133Z,21.90
2019-04-26T09:30:05.016Z,21.88
2019-04-26T09:32:34.647Z,21.34
2019-04-26T09:35:03.084Z,20.90
2019-04-26T09:37:31.489Z,20.69
2019-04-26T09:40:09.679Z,21.12
2019-04-26T09:42:39.375Z,21.56
2019-04-26T09:45:09.770Z,21.52
2019-04-26T09:47:42.749Z,21.74
2019-04-26T09:50:15.351Z,21.86
2019-04-26T09:52:50.407Z,22.09
2019-04-26T09:55:18.809Z,22.15
2019-04-26T09:57:47.244Z,21.91
2019-04-26T10:00:20.695Z,21.69
2019-04-26T10:02:49.126Z,21.77
2019-04-26T10:05:22.055Z,21.57
2019-04-26T10:07:47.751Z,21.51
2019-04-26T10:10:23.027Z,21.60
2019-04-26T10:12:52.411Z,21.95
2019-04-26T10:15:28.284Z,22.04
2019-04-26T10:17:56.749Z,22.49
2019-04-26T10:20:25.155Z,22.96
2019-04-26T10:22:53.581Z,23.20
2019-04-26T10:25:22.050Z,23.46
2019-04-26T10:27:50.549Z,23.66
2019-04-26T10:30:19.023Z,23.82
2019-04-26T10:32:47.458Z,23.63
2019-04-26T10:35:17.524Z,23.46
2019-04-26T10:37:48.207Z,23.46
2019-04-26T10:40:16.425Z,23.23
2019-04-26T10:42:44.850Z,23.40
2019-04-26T10:45:14.841Z,22.98
2019-04-26T10:47:44.187Z,22.98
2019-04-26T10:50:12.756Z,23.10
2019-04-26T10:52:53.423Z,23.04
2019-04-26T10:55:20.376Z,23.09
2019-04-26T10:57:52.932Z,23.17
2019-04-26T11:00:38.298Z,22.94
2019-04-26T11:03:06.725Z,22.38
2019-04-26T11:05:35.197Z,22.51
2019-04-26T11:08:03.870Z,22.47
2019-04-26T11:10:32.544Z,22.16
2019-04-26T11:13:01.046Z,22.60
2019-04-26T11:15:32.788Z,22.87
2019-04-26T11:17:59.610Z,22.53
2019-04-26T11:20:28.007Z,21.90
2019-04-26T11:22:56.438Z,21.73
2019-04-26T11:25:28.286Z,21.74
2019-04-26T11:27:55.002Z,21.47
2019-04-26T11:30:23.473Z,21.38
2019-04-26T11:32:51.918Z,21.30
2019-04-26T11:35:20.413Z,21.64
2019-04-26T11:37:50.762Z,21.61
2019-04-26T11:40:19.020Z,21.88
2019-04-26T11:42:47.462Z,21.77
2019-04-26T11:45:17.585Z,21.67
2019-04-26T11:47:55.894Z,21.64
2019-04-26T11:50:16.558Z,21.65
2019-04-26T11:52:46.235Z,21.38
2019-04-26T11:55:15.019Z,21.36
2019-04-26T11:57:47.007Z,22.04
2019-04-26T12:00:15.680Z,22.25
2019-04-26T12:02:46.278Z,22.11
2019-04-26T12:05:25.073Z,21.29
2019-04-26T12:07:57.869Z,21.33
2019-04-26T12:10:27.252Z,21.27
2019-04-26T12:13:05.157Z,21.62
2019-04-26T12:15:30.423Z,21.84
2019-04-26T12:17:58.605Z,21.41
2019-04-26T12:20:26.801Z,21.03
2019-04-26T12:22:56.420Z,21.27
2019-04-26T12:25:24.847Z,20.40
2019-04-26T12:27:53.687Z,20.30
2019-04-26T12:30:26.353Z,20.91
2019-04-26T12:32:52.418Z,21.35
2019-04-26T12:35:20.821Z,21.66
2019-04-26T12:37:50.596Z,21.55
2019-04-26T12:40:19.589Z,20.84
2019-04-26T12:42:48.390Z,21.13
2019-04-26T12:45:35.435Z,20.74
2019-04-26T12:48:17.824Z,20.23
2019-04-26T12:50:46.269Z,19.68
2019-04-26T12:53:14.669Z,19.70
2019-04-26T12:55:43.099Z,19.89
2019-04-26T12:58:15.195Z,20.19
2019-04-26T13:00:53.235Z,20.15
2019-04-26T13:03:20.156Z,20.17
2019-04-26T13:05:41.974Z,20.35
2019-04-26T13:08:13.207Z,19.99
2019-04-26T13:10:44.825Z,19.78
2019-04-26T13:13:23.021Z,19.40
2019-04-26T13:16:02.130Z,18.79
2019-04-26T13:18:31.478Z,18.96
2019-04-26T13:21:02.987Z,19.08
2019-04-26T13:23:31.266Z,19.16
2019-04-26T13:26:01.424Z,19.60
2019-04-26T13:28:30.173Z,19.54
2019-04-26T13:30:58.591Z,19.56
2019-04-26T13:33:27.935Z,19.53
2019-04-26T13:36:04.395Z,19.59
2019-04-26T13:38:27.285Z,19.91
2019-04-26T13:40:59.444Z,20.21
2019-04-26T13:43:27.092Z,19.95
2019-04-26T13:45:57.699Z,19.81
2019-04-26T13:48:43.626Z,19.44
2019-04-26T13:51:14.151Z,18.99
2019-04-26T13:53:42.559Z,18.94
2019-04-26T13:56:10.957Z,19.27
2019-04-26T13:58:39.394Z,19.95
2019-04-26T14:01:09.066Z,20.03
2019-04-26T14:03:37.496Z,19.21
2019-04-26T14:06:05.969Z,19.52
2019-04-26T14:08:34.400Z,19.22
2019-04-26T14:11:02.809Z,18.99
2019-04-26T14:13:31.234Z,18.72
2019-04-26T14:15:59.644Z,18.28
2019-04-26T14:18:28.214Z,18.30
2019-04-26T14:20:59.023Z,18.20
2019-04-26T14:23:45.363Z,18.50
2019-04-26T14:26:35.316Z,18.75
2019-04-26T14:29:01.832Z,18.55
2019-04-26T14:31:30.243Z,18.50
2019-04-26T14:34:01.214Z,18.62
2019-04-26T14:36:28.866Z,18.73
2019-04-26T14:39:05.687Z,18.64
2019-04-26T14:41:27.487Z,18.43
2019-04-26T14:43:56.840Z,18.30
2019-04-26T14:46:25.419Z,18.23
2019-04-26T14:49:01.819Z,18.29
2019-04-26T14:51:23.971Z,18.13
2019-04-26T14:53:52.407Z,18.04
2019-04-26T14:56:24.593Z,17.91
2019-04-26T14:58:52.259Z,17.84
2019-04-26T15:01:22.529Z,17.76
2019-04-26T15:04:08.773Z,17.74
2019-04-26T15:06:38.816Z,17.73
2019-04-26T15:09:17.035Z,17.73
2019-04-26T15:11:37.391Z,17.52
2019-04-26T15:14:05.882Z,17.58
2019-04-26T15:16:34.286Z,17.52
2019-04-26T15:19:06.319Z,17.33
2019-04-26T15:21:34.339Z,17.27
2019-04-26T15:24:04.966Z,17.28
2019-04-26T15:26:33.074Z,17.08
2019-04-26T15:29:02.469Z,17.08
2019-04-26T15:31:33.084Z,16.98
2019-04-26T15:34:03.249Z,16.83
2019-04-26T15:36:31.840Z,16.81
2019-04-26T15:39:02.695Z,16.65
2019-04-26T15:41:33.242Z,16.58
2019-04-26T15:44:03.923Z,16.54
2019-04-26T15:46:50.027Z,16.48
2019-04-26T15:49:20.079Z,16.49
2019-04-26T15:51:48.486Z,16.49
2019-04-26T15:54:17.841Z,16.45
2019-04-26T15:56:49.363Z,16.45
2019-04-26T15:59:18.341Z,16.40
2019-04-26T16:01:49.248Z,16.38
2019-04-26T16:04:18.428Z,16.40
2019-04-26T16:06:46.972Z,16.37
2019-04-26T16:09:19.840Z,16.40
2019-04-26T16:11:49.571Z,16.48
2019-04-26T16:14:15.800Z,16.48
2019-04-26T16:16:44.232Z,16.45
2019-04-26T16:19:13.078Z,16.39
2019-04-26T16:21:42.580Z,16.31
2019-04-26T16:24:12.826Z,16.31
2019-04-26T16:26:44.522Z,16.16
2019-04-26T16:29:18.405Z,16.03
2019-04-26T16:31:47.137Z,15.85
2019-04-26T16:34:17.169Z,15.77
2019-04-26T16:36:45.613Z,15.69
2019-04-26T16:39:14.388Z,15.49
2019-04-26T16:41:42.815Z,15.44
2019-04-26T16:44:12.885Z,15.37
2019-04-26T16:46:43.491Z,15.31
2019-04-26T16:49:14.065Z,15.29
2019-04-26T16:51:43.656Z,15.23
2019-04-26T16:54:21.238Z,15.17
2019-04-26T16:56:43.860Z,15.16
2019-04-26T16:59:14.376Z,15.11
2019-04-26T17:01:47.158Z,15.09
2019-04-26T17:04:14.128Z,15.09
2019-04-26T17:06:44.815Z,15.01
2019-04-26T17:09:14.329Z,14.91
2019-04-26T17:11:43.578Z,14.83
2019-04-26T17:14:13.198Z,14.77
2019-04-26T17:16:44.026Z,14.74
2019-04-26T17:19:13.671Z,14.75
2019-04-26T17:21:44.029Z,14.76
2019-04-26T17:24:26.352Z,14.74
2019-04-26T17:26:59.107Z,14.72
2019-04-26T17:29:27.514Z,14.69
2019-04-26T17:31:55.948Z,14.60
2019-04-26T17:34:28.984Z,14.59
2019-04-26T17:36:54.523Z,14.54
2019-04-26T17:39:22.936Z,14.51
2019-04-26T17:41:54.258Z,14.51
2019-04-26T17:44:26.455Z,14.50
2019-04-26T17:46:56.359Z,14.51
2019-04-26T17:49:27.114Z,14.54
2019-04-26T17:51:57.826Z,14.42
2019-04-26T17:54:41.649Z,14.35
2019-04-26T17:56:52.284Z,14.26
2019-04-26T17:59:31.398Z,14.21
2019-04-26T18:01:57.318Z,14.16
2019-04-26T18:04:31.983Z,14.11
2019-04-26T18:06:57.821Z,14.08
2019-04-26T18:09:38.995Z,13.96
2019-04-26T18:11:55.365Z,13.89
2019-04-26T18:14:25.544Z,13.83
2019-04-26T18:16:57.183Z,13.80
2019-04-26T18:19:30.362Z,13.66
2019-04-26T18:22:12.965Z,13.55
2019-04-26T18:24:43.167Z,13.49
2019-04-26T18:27:11.711Z,13.45
2019-04-26T18:29:40.118Z,13.42
2019-04-26T18:32:08.765Z,13.36
2019-04-26T18:34:40.439Z,13.30
2019-04-26T18:37:07.633Z,13.26
2019-04-26T18:39:36.207Z,13.20
2019-04-26T18:42:05.972Z,13.17
2019-04-26T18:44:38.960Z,13.16
2019-04-26T18:47:06.532Z,13.14
2019-04-26T18:49:34.943Z,13.13
2019-04-26T18:52:03.760Z,13.17
2019-04-26T18:54:34.648Z,13.17
2019-04-26T18:57:03.404Z,13.19
2019-04-26T18:59:31.796Z,13.18
2019-04-26T19:02:00.208Z,13.17
2019-04-26T19:04:28.650Z,13.16
2019-04-26T19:06:57.129Z,13.12
2019-04-26T19:09:26.999Z,13.04
2019-04-26T19:11:56.193Z,13.01
2019-04-26T19:14:49.233Z,13.08
2019-04-26T19:17:31.773Z,13.04
2019-04-26T19:20:18.868Z,13.00
2019-04-26T19:22:50.412Z,12.97
2019-04-26T19:25:23.127Z,12.94
2019-04-26T19:27:50.309Z,12.92
2019-04-26T19:30:21.460Z,12.87
2019-04-26T19:32:52.012Z,12.85
2019-04-26T19:35:21.778Z,12.78
2019-04-26T19:37:51.804Z,12.73
2019-04-26T19:40:20.400Z,12.67
2019-04-26T19:42:51.372Z,12.67
2019-04-26T19:45:39.544Z,12.63
2019-04-26T19:48:15.823Z,12.56
2019-04-26T19:50:58.043Z,12.52
2019-04-26T19:53:36.581Z,12.47
2019-04-26T19:56:06.700Z,12.46
2019-04-26T19:58:36.770Z,12.43
2019-04-26T20:01:05.311Z,12.41
2019-04-26T20:03:33.993Z,12.39
2019-04-26T20:06:02.444Z,12.37
2019-04-26T20:08:35.475Z,12.36
2019-04-26T20:11:01.436Z,12.30
2019-04-26T20:13:31.565Z,12.28
2019-04-26T20:16:02.678Z,12.25
2019-04-26T20:18:34.417Z,12.23
2019-04-26T20:21:02.381Z,12.18
2019-04-26T20:23:31.725Z,12.13
2019-04-26T20:26:06.930Z,12.09
2019-04-26T20:28:34.251Z,12.03
2019-04-26T20:31:07.669Z,12.02
2019-04-26T20:33:35.092Z,12.02
2019-04-26T20:36:04.825Z,11.98
2019-04-26T20:38:42.129Z,11.95
2019-04-26T20:41:03.621Z,11.92
2019-04-26T20:43:32.219Z,11.91
2019-04-26T20:46:13.771Z,11.88
2019-04-26T20:48:33.072Z,11.85
2019-04-26T20:51:02.214Z,11.80
2019-04-26T20:53:40.107Z,11.77
2019-04-26T20:56:03.820Z,11.73
2019-04-26T20:58:31.232Z,11.68
2019-04-26T21:01:01.364Z,11.64
2019-04-26T21:03:29.956Z,11.63
2019-04-26T21:06:00.573Z,11.59
2019-04-26T21:08:28.605Z,11.54
2019-04-26T21:11:00.211Z,11.52
2019-04-26T21:13:30.758Z,11.45
2019-04-26T21:15:58.707Z,11.42
2019-04-26T21:18:27.547Z,11.37
2019-04-26T21:20:55.977Z,11.32
2019-04-26T21:23:24.396Z,11.28
2019-04-26T21:26:14.733Z,11.24
2019-04-26T21:28:42.667Z,11.23
2019-04-26T21:31:13.469Z,11.14
2019-04-26T21:33:43.516Z,11.05
2019-04-26T21:36:25.840Z,11.01
2019-04-26T21:38:59.400Z,10.95
2019-04-26T21:41:34.993Z,10.89
2019-04-26T21:44:03.407Z,10.86
2019-04-26T21:46:33.507Z,10.83
2019-04-26T21:49:03.591Z,10.78
2019-04-26T21:51:33.859Z,10.76
2019-04-26T21:54:03.850Z,10.72
2019-04-26T21:56:33.770Z,10.69
2019-04-26T21:59:03.682Z,10.63
2019-04-26T22:01:33.106Z,10.61
2019-04-26T22:04:03.005Z,10.56
2019-04-26T22:06:33.471Z,10.51
2019-04-26T22:09:09.129Z,10.48
2019-04-26T22:11:37.560Z,10.48
2019-04-26T22:14:07.614Z,10.45
2019-04-26T22:16:38.173Z,10.42
2019-04-26T22:19:23.987Z,10.44
2019-04-26T22:21:59.308Z,10.44
2019-04-26T22:24:30.048Z,10.45
2019-04-26T22:26:58.481Z,10.45
2019-04-26T22:29:26.893Z,10.44
2019-04-26T22:31:55.332Z,10.46
2019-04-26T22:34:23.740Z,10.45
2019-04-26T22:36:53.684Z,10.43
2019-04-26T22:39:22.804Z,10.40
2019-04-26T22:41:53.425Z,10.39
2019-04-26T22:44:34.413Z,10.39
2019-04-26T22:47:07.407Z,10.36
2019-04-26T22:49:41.773Z,10.36
2019-04-26T22:52:10.378Z,10.36
2019-04-26T22:54:37.723Z,10.36
2019-04-26T22:57:08.233Z,10.35
2019-04-26T22:59:38.098Z,10.35
2019-04-26T23:02:08.478Z,10.33
2019-04-26T23:04:36.916Z,10.32
2019-04-26T23:07:06.965Z,10.28
2019-04-26T23:09:35.406Z,10.27
2019-04-26T23:12:05.792Z,10.26
2019-04-26T23:14:41.671Z,10.26
2019-04-26T23:17:14.446Z,10.26
2019-04-26T23:19:44.794Z,10.28
2019-04-26T23:22:13.268Z,10.26
2019-04-26T23:24:42.789Z,10.23
2019-04-26T23:27:14.868Z,10.20
2019-04-26T23:29:43.568Z,10.20
2019-04-26T23:32:18.351Z,10.15
2019-04-26T23:34:44.193Z,10.17
2019-04-26T23:37:13.147Z,10.22
2019-04-26T23:39:44.488Z,10.22
2019-04-26T23:42:12.332Z,10.20
2019-04-26T23:44:43.925Z,10.18
2019-04-26T23:47:20.509Z,10.17
2019-04-26T23:49:43.362Z,10.17
2019-04-26T23:52:14.430Z,10.11
2019-04-26T23:54:42.128Z,10.09
2019-04-26T23:57:10.541Z,10.05
2019-04-26T23:59:39.348Z,10.01
